Hebe — A8OH7 — position and weather

sailwx.info

Track history (hours):
 
Tides and Currents Weather Stations Pressure Air Temp Water Temp Dewpoint Dewpoint Depression Visibility Wind Speed Wind Dir Waves Ship Positions

Hebe

Last reported at 2014-Aug-20 21:29 UTC. Time now 2014-Aug-30 04:29 UTC.
Position N 29°17' W 014°04'.
Warning: this ship's position is 9 days out of date.

Length 220 m; draft 12.2 m.

Type: Ship. MMSI: 636091480.

Date/timePositionNaut miles runAvg speedWind from/ knotsBaromVisibWave heightAir tempDewpointWater temp
2014-Aug-20 21:29N 29°17' W 014°04'1713.1
2014-Aug-20 20:13N 29°28' W 013°51'37815.3
2014-Aug-19 19:29N 33°57' W 008°38'37114.3
2014-Aug-18 17:33N 36°41' W 001°50'1515.1
2014-Aug-18 16:33N 36°51' W 001°36'4515.1
2014-Aug-18 13:33N 37°21' W 000°53'1515.1
2014-Aug-18 12:32N 37°31' W 000°38'1414.4
2014-Aug-18 11:33N 37°42' W 000°27'1514.7
2014-Aug-18 10:32N 37°55' W 000°17'1414.5
2014-Aug-18 09:33N 38°07' W 000°07'1514.5
2014-Aug-18 08:32N 38°19' E 000°03'3013.4
2014-Aug-18 06:19N 38°44' E 000°23'1012.8
2014-Aug-18 05:33N 38°52' E 000°16'3913.2
2014-Aug-18 02:34N 39°24' W 000°15'4 4.5
2014-Aug-18 01:34N 39°26' W 000°20'0 0.0
2014-Aug-18 00:33N 39°26' W 000°20'0 0.0
2014-Aug-17 18:30N 39°26' W 000°20'0 0.0
2014-Aug-17 17:27N 39°26' W 000°20'0 0.0
2014-Aug-17 16:20N 39°26' W 000°20'0 0.2
2014-Aug-17 15:34N 39°26' W 000°19'0 0.2
2014-Aug-17 14:32N 39°26' W 000°19'0 0.0
2014-Aug-17 13:28N 39°26' W 000°19'0 0.0
2014-Aug-17 12:28N 39°26' W 000°19'0 0.0
2014-Aug-17 11:34N 39°26' W 000°19'0 0.0
2014-Aug-17 10:33N 39°26' W 000°19'0 0.0
2014-Aug-17 09:33N 39°26' W 000°19'0 0.0
2014-Aug-17 08:32N 39°26' W 000°19'0 0.0
2014-Aug-17 07:32N 39°26' W 000°19'0 0.0
2014-Aug-17 06:31N 39°26' W 000°19'0 0.0
2014-Aug-17 05:31N 39°26' W 000°19'0 0.0
2014-Aug-17 04:30N 39°26' W 000°19'0 0.0
2014-Aug-17 03:30N 39°26' W 000°19'0 0.0
2014-Aug-17 02:30N 39°26' W 000°19'81 2.1
2014-Aug-15 12:33N 40°18' E 001°03'4413.9
2014-Aug-15 09:24N 40°36' E 001°55'3214.1
2014-Aug-15 07:09N 40°49' E 002°33'1014.9
2014-Aug-15 06:27N 40°54' E 002°45'1314.7
2014-Aug-15 05:33N 40°59' E 003°01'1515.5
2014-Aug-15 04:33N 41°06' E 003°20'1514.8
2014-Aug-15 03:33N 41°12' E 003°37'1514.8
2014-Aug-15 02:33N 41°18' E 003°55'1515.0
2014-Aug-15 01:33N 41°25' E 004°13'1515.0
2014-Aug-15 00:33N 41°31' E 004°32'1515.4
2014-Aug-14 23:33N 41°37' E 004°50'1515.2
2014-Aug-14 22:33N 41°44' E 005°09'1515.2
2014-Aug-14 21:33N 41°50' E 005°27'1515.1
2014-Aug-14 20:33N 41°57' E 005°46'1615.9
2014-Aug-14 19:32N 42°04' E 006°05'1615.8
2014-Aug-14 18:33N 42°10' E 006°24'1817.2
2014-Aug-14 17:31N 42°17' E 006°46'12117.4
2014-Aug-14 10:33N 43°08' E 009°16'1716.7
2014-Aug-14 09:33N 43°14' E 009°37'1616.1
2014-Aug-14 08:33N 43°19' E 009°58'1615.9
2014-Aug-14 07:33N 43°31' E 010°13'6 5.6
2014-Aug-14 06:33N 43°34' E 010°18'0 0.0
2014-Aug-14 05:32N 43°34' E 010°18'0 0.0
2014-Aug-14 04:29N 43°34' E 010°18'0 0.0
2014-Aug-14 03:31N 43°34' E 010°18'0 0.0
2014-Aug-14 02:31N 43°34' E 010°18'0 0.0
2014-Aug-14 01:33N 43°34' E 010°18'0 0.0
2014-Aug-14 00:33N 43°34' E 010°18'0 0.0
2014-Aug-13 23:32N 43°34' E 010°18'0 0.0
2014-Aug-13 22:32N 43°34' E 010°18'0 0.0
2014-Aug-13 21:32N 43°34' E 010°18'0 0.0
2014-Aug-13 20:31N 43°34' E 010°18'0 0.0
2014-Aug-13 19:31N 43°34' E 010°18'0 0.0
2014-Aug-13 18:33N 43°34' E 010°18'0 0.0
2014-Aug-13 17:33N 43°34' E 010°18'0 0.0
2014-Aug-13 16:32N 43°34' E 010°18'0 0.0
2014-Aug-13 15:32N 43°34' E 010°18'0 0.0
2014-Aug-13 14:29N 43°34' E 010°18'0 0.0
2014-Aug-13 13:31N 43°34' E 010°18'0 0.0
2014-Aug-13 12:31N 43°34' E 010°18'0 0.0
2014-Aug-13 11:33N 43°34' E 010°18'0 0.0
2014-Aug-13 10:33N 43°34' E 010°18'0 0.0
2014-Aug-13 09:32N 43°34' E 010°18'0 0.0
2014-Aug-13 08:32N 43°34' E 010°18'0 0.0
2014-Aug-13 07:32N 43°34' E 010°18'3 2.6
2014-Aug-13 06:33N 43°32' E 010°17'5 5.2
2014-Aug-13 05:33N 43°30' E 010°10'9 9.2
2014-Aug-13 04:33N 43°34' E 009°59'10 9.8
2014-Aug-13 03:33N 43°41' E 009°49'10 9.6
2014-Aug-13 02:33N 43°47' E 009°39'1110.7
2014-Aug-13 01:33N 43°54' E 009°28'1110.6
2014-Aug-13 00:33N 44°01' E 009°17'1110.5
2014-Aug-12 23:33N 44°08' E 009°06'1110.6
2014-Aug-12 22:33N 44°15' E 008°55'1010.0
2014-Aug-12 21:33N 44°22' E 008°45'4 3.9
2014-Aug-12 20:33N 44°25' E 008°47'0 0.0
2014-Aug-12 19:30N 44°25' E 008°47'0 0.0
2014-Aug-12 18:33N 44°25' E 008°47'0 0.0
2014-Aug-12 17:32N 44°25' E 008°47'0 0.0
2014-Aug-12 16:32N 44°25' E 008°47'0 0.0
2014-Aug-12 15:31N 44°25' E 008°47'0 0.0
2014-Aug-12 14:31N 44°25' E 008°47'0 0.0
2014-Aug-12 13:34N 44°25' E 008°47'0 0.0
2014-Aug-12 12:33N 44°25' E 008°47'0 0.0
2014-Aug-12 11:33N 44°25' E 008°47'0 0.0
2014-Aug-12 10:32N 44°25' E 008°47'0 0.0
2014-Aug-12 09:32N 44°25' E 008°47'1 0.7
2014-Aug-12 08:34N 44°25' E 008°46'8 8.2
2014-Aug-12 07:34N 44°17' E 008°42'1110.5
2014-Aug-12 06:33N 44°08' E 008°35'1110.8
2014-Aug-12 05:34N 43°59' E 008°26'59 9.9
2014-Aug-11 23:34N 43°20' E 007°24'1110.7
2014-Aug-11 22:32N 43°14' E 007°12'1010.5
2014-Aug-11 21:34N 43°07' E 007°01'1010.1
2014-Aug-11 20:34N 43°01' E 006°50'10 9.9
2014-Aug-11 19:34N 42°55' E 006°39'10 9.9
2014-Aug-11 18:34N 42°50' E 006°28'1110.6
2014-Aug-11 17:33N 42°50' E 006°14'1010.4
2014-Aug-11 16:34N 42°50' E 005°59'1110.6
2014-Aug-11 15:33N 42°50' E 005°45'1110.7
2014-Aug-11 14:33N 42°55' E 005°32'1111.0
2014-Aug-11 13:33N 43°02' E 005°20'1111.0
2014-Aug-11 12:34N 43°08' E 005°08'1110.6
2014-Aug-11 11:34N 43°17' E 004°59'1110.4
2014-Aug-11 10:33N 43°25' E 004°50'0 0.0
2014-Aug-11 09:32N 43°25' E 004°50'0 0.0
2014-Aug-11 08:32N 43°25' E 004°50'0 0.0
2014-Aug-11 07:31N 43°25' E 004°50'0 0.0
2014-Aug-11 06:31N 43°25' E 004°50'0 0.0
2014-Aug-11 05:31N 43°25' E 004°50'0 0.0
2014-Aug-11 04:33N 43°25' E 004°50'0 0.0
2014-Aug-11 03:34N 43°25' E 004°50'3 3.4
2014-Aug-11 02:33N 43°24' E 004°55'10 9.8
2014-Aug-11 01:34N 43°15' E 005°01'1010.2
2014-Aug-11 00:34N 43°06' E 004°56'1211.6
2014-Aug-10 23:31N 42°56' E 004°46'1212.2
2014-Aug-10 22:32N 42°47' E 004°36'1111.2
2014-Aug-10 21:33N 42°38' E 004°27'  
Track history (hours):
 
Tides and Currents Weather Stations Pressure Air Temp Water Temp Dewpoint Dewpoint Depression Visibility Wind Speed Wind Dir Waves Ship Positions

Hebe

Last reported at 2014-Aug-20 21:29 UTC. Time now 2014-Aug-30 04:29 UTC.
Position N 29°17' W 014°04'.
Warning: this ship's position is 9 days out of date.

Length 220 m; draft 12.2 m.

Type: Ship. MMSI: 636091480.

Date/timePositionNaut miles runAvg speedWind from/ knotsBaromVisibWave heightAir tempDewpointWater temp
2014-Aug-20 21:29N 29°17' W 014°04'1713.1
2014-Aug-20 20:13N 29°28' W 013°51'37815.3
2014-Aug-19 19:29N 33°57' W 008°38'37114.3
2014-Aug-18 17:33N 36°41' W 001°50'1515.1
2014-Aug-18 16:33N 36°51' W 001°36'4515.1
2014-Aug-18 13:33N 37°21' W 000°53'1515.1
2014-Aug-18 12:32N 37°31' W 000°38'1414.4
2014-Aug-18 11:33N 37°42' W 000°27'1514.7
2014-Aug-18 10:32N 37°55' W 000°17'1414.5
2014-Aug-18 09:33N 38°07' W 000°07'1514.5
2014-Aug-18 08:32N 38°19' E 000°03'3013.4
2014-Aug-18 06:19N 38°44' E 000°23'1012.8
2014-Aug-18 05:33N 38°52' E 000°16'3913.2
2014-Aug-18 02:34N 39°24' W 000°15'4 4.5
2014-Aug-18 01:34N 39°26' W 000°20'0 0.0
2014-Aug-18 00:33N 39°26' W 000°20'0 0.0
2014-Aug-17 18:30N 39°26' W 000°20'0 0.0
2014-Aug-17 17:27N 39°26' W 000°20'0 0.0
2014-Aug-17 16:20N 39°26' W 000°20'0 0.2
2014-Aug-17 15:34N 39°26' W 000°19'0 0.2
2014-Aug-17 14:32N 39°26' W 000°19'0 0.0
2014-Aug-17 13:28N 39°26' W 000°19'0 0.0
2014-Aug-17 12:28N 39°26' W 000°19'0 0.0
2014-Aug-17 11:34N 39°26' W 000°19'0 0.0
2014-Aug-17 10:33N 39°26' W 000°19'0 0.0
2014-Aug-17 09:33N 39°26' W 000°19'0 0.0
2014-Aug-17 08:32N 39°26' W 000°19'0 0.0
2014-Aug-17 07:32N 39°26' W 000°19'0 0.0
2014-Aug-17 06:31N 39°26' W 000°19'0 0.0
2014-Aug-17 05:31N 39°26' W 000°19'0 0.0
2014-Aug-17 04:30N 39°26' W 000°19'0 0.0
2014-Aug-17 03:30N 39°26' W 000°19'0 0.0
2014-Aug-17 02:30N 39°26' W 000°19'81 2.1
2014-Aug-15 12:33N 40°18' E 001°03'4413.9
2014-Aug-15 09:24N 40°36' E 001°55'3214.1
2014-Aug-15 07:09N 40°49' E 002°33'1014.9
2014-Aug-15 06:27N 40°54' E 002°45'1314.7
2014-Aug-15 05:33N 40°59' E 003°01'1515.5
2014-Aug-15 04:33N 41°06' E 003°20'1514.8
2014-Aug-15 03:33N 41°12' E 003°37'1514.8
2014-Aug-15 02:33N 41°18' E 003°55'1515.0
2014-Aug-15 01:33N 41°25' E 004°13'1515.0
2014-Aug-15 00:33N 41°31' E 004°32'1515.4
2014-Aug-14 23:33N 41°37' E 004°50'1515.2
2014-Aug-14 22:33N 41°44' E 005°09'1515.2
2014-Aug-14 21:33N 41°50' E 005°27'1515.1
2014-Aug-14 20:33N 41°57' E 005°46'1615.9
2014-Aug-14 19:32N 42°04' E 006°05'1615.8
2014-Aug-14 18:33N 42°10' E 006°24'1817.2
2014-Aug-14 17:31N 42°17' E 006°46'12117.4
2014-Aug-14 10:33N 43°08' E 009°16'1716.7
2014-Aug-14 09:33N 43°14' E 009°37'1616.1
2014-Aug-14 08:33N 43°19' E 009°58'1615.9
2014-Aug-14 07:33N 43°31' E 010°13'6 5.6
2014-Aug-14 06:33N 43°34' E 010°18'0 0.0
2014-Aug-14 05:32N 43°34' E 010°18'0 0.0
2014-Aug-14 04:29N 43°34' E 010°18'0 0.0
2014-Aug-14 03:31N 43°34' E 010°18'0 0.0
2014-Aug-14 02:31N 43°34' E 010°18'0 0.0
2014-Aug-14 01:33N 43°34' E 010°18'0 0.0
2014-Aug-14 00:33N 43°34' E 010°18'0 0.0
2014-Aug-13 23:32N 43°34' E 010°18'0 0.0
2014-Aug-13 22:32N 43°34' E 010°18'0 0.0
2014-Aug-13 21:32N 43°34' E 010°18'0 0.0
2014-Aug-13 20:31N 43°34' E 010°18'0 0.0
2014-Aug-13 19:31N 43°34' E 010°18'0 0.0
2014-Aug-13 18:33N 43°34' E 010°18'0 0.0
2014-Aug-13 17:33N 43°34' E 010°18'0 0.0
2014-Aug-13 16:32N 43°34' E 010°18'0 0.0
2014-Aug-13 15:32N 43°34' E 010°18'0 0.0
2014-Aug-13 14:29N 43°34' E 010°18'0 0.0
2014-Aug-13 13:31N 43°34' E 010°18'0 0.0
2014-Aug-13 12:31N 43°34' E 010°18'0 0.0
2014-Aug-13 11:33N 43°34' E 010°18'0 0.0
2014-Aug-13 10:33N 43°34' E 010°18'0 0.0
2014-Aug-13 09:32N 43°34' E 010°18'0 0.0
2014-Aug-13 08:32N 43°34' E 010°18'0 0.0
2014-Aug-13 07:32N 43°34' E 010°18'3 2.6
2014-Aug-13 06:33N 43°32' E 010°17'5 5.2
2014-Aug-13 05:33N 43°30' E 010°10'9 9.2
2014-Aug-13 04:33N 43°34' E 009°59'10 9.8
2014-Aug-13 03:33N 43°41' E 009°49'10 9.6
2014-Aug-13 02:33N 43°47' E 009°39'1110.7
2014-Aug-13 01:33N 43°54' E 009°28'1110.6
2014-Aug-13 00:33N 44°01' E 009°17'1110.5
2014-Aug-12 23:33N 44°08' E 009°06'1110.6
2014-Aug-12 22:33N 44°15' E 008°55'1010.0
2014-Aug-12 21:33N 44°22' E 008°45'4 3.9
2014-Aug-12 20:33N 44°25' E 008°47'0 0.0
2014-Aug-12 19:30N 44°25' E 008°47'0 0.0
2014-Aug-12 18:33N 44°25' E 008°47'0 0.0
2014-Aug-12 17:32N 44°25' E 008°47'0 0.0
2014-Aug-12 16:32N 44°25' E 008°47'0 0.0
2014-Aug-12 15:31N 44°25' E 008°47'0 0.0
2014-Aug-12 14:31N 44°25' E 008°47'0 0.0
2014-Aug-12 13:34N 44°25' E 008°47'0 0.0
2014-Aug-12 12:33N 44°25' E 008°47'0 0.0
2014-Aug-12 11:33N 44°25' E 008°47'0 0.0
2014-Aug-12 10:32N 44°25' E 008°47'0 0.0
2014-Aug-12 09:32N 44°25' E 008°47'1 0.7
2014-Aug-12 08:34N 44°25' E 008°46'8 8.2
2014-Aug-12 07:34N 44°17' E 008°42'1110.5
2014-Aug-12 06:33N 44°08' E 008°35'1110.8
2014-Aug-12 05:34N 43°59' E 008°26'59 9.9
2014-Aug-11 23:34N 43°20' E 007°24'1110.7
2014-Aug-11 22:32N 43°14' E 007°12'1010.5
2014-Aug-11 21:34N 43°07' E 007°01'1010.1
2014-Aug-11 20:34N 43°01' E 006°50'10 9.9
2014-Aug-11 19:34N 42°55' E 006°39'10 9.9
2014-Aug-11 18:34N 42°50' E 006°28'1110.6
2014-Aug-11 17:33N 42°50' E 006°14'1010.4
2014-Aug-11 16:34N 42°50' E 005°59'1110.6
2014-Aug-11 15:33N 42°50' E 005°45'1110.7
2014-Aug-11 14:33N 42°55' E 005°32'1111.0
2014-Aug-11 13:33N 43°02' E 005°20'1111.0
2014-Aug-11 12:34N 43°08' E 005°08'1110.6
2014-Aug-11 11:34N 43°17' E 004°59'1110.4
2014-Aug-11 10:33N 43°25' E 004°50'0 0.0
2014-Aug-11 09:32N 43°25' E 004°50'0 0.0
2014-Aug-11 08:32N 43°25' E 004°50'0 0.0
2014-Aug-11 07:31N 43°25' E 004°50'0 0.0
2014-Aug-11 06:31N 43°25' E 004°50'0 0.0
2014-Aug-11 05:31N 43°25' E 004°50'0 0.0
2014-Aug-11 04:33N 43°25' E 004°50'0 0.0
2014-Aug-11 03:34N 43°25' E 004°50'3 3.4
2014-Aug-11 02:33N 43°24' E 004°55'10 9.8
2014-Aug-11 01:34N 43°15' E 005°01'1010.2
2014-Aug-11 00:34N 43°06' E 004°56'1211.6
2014-Aug-10 23:31N 42°56' E 004°46'1212.2
2014-Aug-10 22:32N 42°47' E 004°36'1111.2
2014-Aug-10 21:33N 42°38' E 004°27'  

Dump ship's entire track history